KPNA

Ralph Wenz Field Airport

Pinedale, Wyoming, USA
METAR KPNA 231435Z AUTO 17007G17KT 10SM OVC005 07/07 A3008 RMK AO2
Observed Flight Rules
May-23 @ 14:35 UTC (36 minutes ago) Instrument Flight Rules
Wind Visibility Clouds
170° at 7 knots
 Gusting to 17 knots
10 miles
  • Overcast at 500' AGL
Temperatures Readings
Current 7°C / 45°F
Dewpoint 7°C / 45°F
Humidity 100%
Altimeter 30.08" Hg
Pressure 1019 hPa
Elevation 2160
METAR KPNA 231435Z AUTO 17007G17KT 10SM OVC005 07/07 A3008 RMK AO2
Observed Flight Rules
May-23 @ 14:35 UTC
(36 minutes ago)
IFR
Wind Visibility
170° at 7 knots
 Gusting to 17 knots
10 miles
Clouds
  • Overcast at 500' AGL
Temperature Dewpoint
7°C / 45°F 7°C / 45°F
Humidity Altimeter Pressure
100% 30.08" Hg 1019 hPa